sensor_id;sensor_type;location;lat;lon;timestamp;temperature;humidity
32097;DHT22;18610;49.916;8.284;2022-08-03T00:00:55;19.60;88.50
32097;DHT22;18610;49.916;8.284;2022-08-03T00:03:21;19.60;89.60
32097;DHT22;18610;49.916;8.284;2022-08-03T00:05:48;19.80;90.30
32097;DHT22;18610;49.916;8.284;2022-08-03T00:08:17;19.70;89.40
32097;DHT22;18610;49.916;8.284;2022-08-03T00:10:43;19.60;89.60
32097;DHT22;18610;49.916;8.284;2022-08-03T00:13:11;19.50;90.10
32097;DHT22;18610;49.916;8.284;2022-08-03T00:15:38;19.50;90.30
32097;DHT22;18610;49.916;8.284;2022-08-03T00:18:06;19.40;90.40
32097;DHT22;18610;49.916;8.284;2022-08-03T00:20:32;19.40;90.80
32097;DHT22;18610;49.916;8.284;2022-08-03T00:22:59;19.40;91.10
32097;DHT22;18610;49.916;8.284;2022-08-03T00:25:27;19.40;90.90
32097;DHT22;18610;49.916;8.284;2022-08-03T00:27:54;19.30;91.40
32097;DHT22;18610;49.916;8.284;2022-08-03T00:30:21;19.30;92.10
32097;DHT22;18610;49.916;8.284;2022-08-03T00:32:47;19.20;92.70
32097;DHT22;18610;49.916;8.284;2022-08-03T00:35:14;19.20;93.30
32097;DHT22;18610;49.916;8.284;2022-08-03T00:37:41;19.30;93.60
32097;DHT22;18610;49.916;8.284;2022-08-03T00:40:10;19.30;93.60
32097;DHT22;18610;49.916;8.284;2022-08-03T00:42:47;19.20;93.90
32097;DHT22;18610;49.916;8.284;2022-08-03T00:45:15;19.10;94.30
32097;DHT22;18610;49.916;8.284;2022-08-03T00:47:42;19.10;94.70
32097;DHT22;18610;49.916;8.284;2022-08-03T00:50:09;19.00;95.00
32097;DHT22;18610;49.916;8.284;2022-08-03T00:52:36;19.00;95.40
32097;DHT22;18610;49.916;8.284;2022-08-03T00:55:03;18.90;95.70
32097;DHT22;18610;49.916;8.284;2022-08-03T00:57:31;19.00;95.80
32097;DHT22;18610;49.916;8.284;2022-08-03T00:59:59;19.10;95.60
32097;DHT22;18610;49.916;8.284;2022-08-03T01:02:27;19.00;95.70
32097;DHT22;18610;49.916;8.284;2022-08-03T01:04:54;18.90;95.70
32097;DHT22;18610;49.916;8.284;2022-08-03T01:07:26;18.90;95.80
32097;DHT22;18610;49.916;8.284;2022-08-03T01:10:02;19.00;95.80
32097;DHT22;18610;49.916;8.284;2022-08-03T01:12:37;19.00;95.90
32097;DHT22;18610;49.916;8.284;2022-08-03T01:15:11;18.90;95.60
32097;DHT22;18610;49.916;8.284;2022-08-03T01:17:45;18.80;96.00
32097;DHT22;18610;49.916;8.284;2022-08-03T01:20:16;18.70;96.10
32097;DHT22;18610;49.916;8.284;2022-08-03T01:23:06;18.70;96.40
32097;DHT22;18610;49.916;8.284;2022-08-03T01:25:58;18.80;96.40
32097;DHT22;18610;49.916;8.284;2022-08-03T01:28:46;18.80;96.00
32097;DHT22;18610;49.916;8.284;2022-08-03T01:31:19;18.60;96.30
32097;DHT22;18610;49.916;8.284;2022-08-03T01:33:51;18.50;96.70
32097;DHT22;18610;49.916;8.284;2022-08-03T01:36:24;18.40;96.90
32097;DHT22;18610;49.916;8.284;2022-08-03T01:38:54;18.40;97.20
32097;DHT22;18610;49.916;8.284;2022-08-03T01:41:25;18.40;96.70
32097;DHT22;18610;49.916;8.284;2022-08-03T01:43:57;18.40;96.70
32097;DHT22;18610;49.916;8.284;2022-08-03T01:46:26;18.40;97.00
32097;DHT22;18610;49.916;8.284;2022-08-03T01:48:55;18.40;97.20
32097;DHT22;18610;49.916;8.284;2022-08-03T01:51:23;18.40;97.30
32097;DHT22;18610;49.916;8.284;2022-08-03T01:53:50;18.40;97.40
32097;DHT22;18610;49.916;8.284;2022-08-03T01:56:21;18.40;97.50
32097;DHT22;18610;49.916;8.284;2022-08-03T01:58:49;18.40;97.70
32097;DHT22;18610;49.916;8.284;2022-08-03T02:01:20;18.40;98.20
32097;DHT22;18610;49.916;8.284;2022-08-03T02:03:49;18.40;98.10
32097;DHT22;18610;49.916;8.284;2022-08-03T02:06:18;18.30;98.30
32097;DHT22;18610;49.916;8.284;2022-08-03T02:08:47;18.20;99.00
32097;DHT22;18610;49.916;8.284;2022-08-03T02:11:15;18.10;99.40
32097;DHT22;18610;49.916;8.284;2022-08-03T02:13:43;18.00;99.60
32097;DHT22;18610;49.916;8.284;2022-08-03T02:16:12;18.10;99.70
32097;DHT22;18610;49.916;8.284;2022-08-03T02:18:40;18.10;99.60
32097;DHT22;18610;49.916;8.284;2022-08-03T02:21:11;18.20;99.40
32097;DHT22;18610;49.916;8.284;2022-08-03T02:23:39;18.20;99.30
32097;DHT22;18610;49.916;8.284;2022-08-03T02:26:11;18.20;99.20
32097;DHT22;18610;49.916;8.284;2022-08-03T02:28:42;18.10;99.30
32097;DHT22;18610;49.916;8.284;2022-08-03T02:31:14;18.00;99.50
32097;DHT22;18610;49.916;8.284;2022-08-03T02:33:57;17.90;99.80
32097;DHT22;18610;49.916;8.284;2022-08-03T02:36:28;17.80;99.90
32097;DHT22;18610;49.916;8.284;2022-08-03T02:38:58;17.70;99.90
32097;DHT22;18610;49.916;8.284;2022-08-03T02:41:29;17.70;99.90
32097;DHT22;18610;49.916;8.284;2022-08-03T02:43:59;17.70;99.90
32097;DHT22;18610;49.916;8.284;2022-08-03T02:46:31;17.80;99.90
32097;DHT22;18610;49.916;8.284;2022-08-03T02:49:00;17.80;99.90
32097;DHT22;18610;49.916;8.284;2022-08-03T02:51:32;17.80;99.90
32097;DHT22;18610;49.916;8.284;2022-08-03T02:54:01;17.70;99.90
32097;DHT22;18610;49.916;8.284;2022-08-03T02:56:28;17.70;99.90
32097;DHT22;18610;49.916;8.284;2022-08-03T02:58:57;17.70;99.90
32097;DHT22;18610;49.916;8.284;2022-08-03T03:01:26;17.70;99.90
32097;DHT22;18610;49.916;8.284;2022-08-03T03:03:55;17.70;99.90
32097;DHT22;18610;49.916;8.284;2022-08-03T03:06:24;17.70;99.90
32097;DHT22;18610;49.916;8.284;2022-08-03T03:08:53;17.70;99.90
32097;DHT22;18610;49.916;8.284;2022-08-03T03:11:22;17.70;99.90
32097;DHT22;18610;49.916;8.284;2022-08-03T03:13:51;17.70;99.90
32097;DHT22;18610;49.916;8.284;2022-08-03T03:16:18;17.80;99.90
32097;DHT22;18610;49.916;8.284;2022-08-03T03:18:47;17.80;99.90
32097;DHT22;18610;49.916;8.284;2022-08-03T03:21:17;17.70;99.90
32097;DHT22;18610;49.916;8.284;2022-08-03T03:23:45;17.70;99.90
32097;DHT22;18610;49.916;8.284;2022-08-03T03:26:14;17.70;99.90
32097;DHT22;18610;49.916;8.284;2022-08-03T03:28:42;17.60;99.90
32097;DHT22;18610;49.916;8.284;2022-08-03T03:31:10;17.50;99.90
32097;DHT22;18610;49.916;8.284;2022-08-03T03:33:37;17.40;99.90
32097;DHT22;18610;49.916;8.284;2022-08-03T03:36:05;17.40;99.90
32097;DHT22;18610;49.916;8.284;2022-08-03T03:38:32;17.40;99.90
32097;DHT22;18610;49.916;8.284;2022-08-03T03:40:59;17.40;99.90
32097;DHT22;18610;49.916;8.284;2022-08-03T03:43:28;17.50;99.90
32097;DHT22;18610;49.916;8.284;2022-08-03T03:45:56;17.40;99.90
32097;DHT22;18610;49.916;8.284;2022-08-03T03:48:24;17.40;99.90
32097;DHT22;18610;49.916;8.284;2022-08-03T03:50:51;17.30;99.90
32097;DHT22;18610;49.916;8.284;2022-08-03T03:53:18;17.30;99.90
32097;DHT22;18610;49.916;8.284;2022-08-03T03:55:45;17.30;99.90
32097;DHT22;18610;49.916;8.284;2022-08-03T03:58:12;17.30;99.90
32097;DHT22;18610;49.916;8.284;2022-08-03T04:00:40;17.40;99.90
32097;DHT22;18610;49.916;8.284;2022-08-03T04:03:10;17.40;99.90
32097;DHT22;18610;49.916;8.284;2022-08-03T04:05:37;17.40;99.90
32097;DHT22;18610;49.916;8.284;2022-08-03T04:08:22;17.40;99.90
32097;DHT22;18610;49.916;8.284;2022-08-03T04:11:12;17.40;99.90
32097;DHT22;18610;49.916;8.284;2022-08-03T04:13:44;17.40;99.90
32097;DHT22;18610;49.916;8.284;2022-08-03T04:16:17;17.30;99.90
32097;DHT22;18610;49.916;8.284;2022-08-03T04:18:46;17.20;99.90
32097;DHT22;18610;49.916;8.284;2022-08-03T04:21:17;17.30;99.90
32097;DHT22;18610;49.916;8.284;2022-08-03T04:23:47;17.20;99.90
32097;DHT22;18610;49.916;8.284;2022-08-03T04:26:19;17.20;99.90
32097;DHT22;18610;49.916;8.284;2022-08-03T04:28:47;17.20;99.90
32097;DHT22;18610;49.916;8.284;2022-08-03T04:31:19;17.30;99.90
32097;DHT22;18610;49.916;8.284;2022-08-03T04:33:49;17.40;99.90
32097;DHT22;18610;49.916;8.284;2022-08-03T04:36:20;17.40;99.90
32097;DHT22;18610;49.916;8.284;2022-08-03T04:38:54;17.40;99.90
32097;DHT22;18610;49.916;8.284;2022-08-03T04:41:26;17.40;99.90
32097;DHT22;18610;49.916;8.284;2022-08-03T04:43:54;17.50;99.90
32097;DHT22;18610;49.916;8.284;2022-08-03T04:46:25;17.50;99.90
32097;DHT22;18610;49.916;8.284;2022-08-03T04:48:54;17.40;99.90
32097;DHT22;18610;49.916;8.284;2022-08-03T04:51:21;17.40;99.90
32097;DHT22;18610;49.916;8.284;2022-08-03T04:53:48;17.50;99.90
32097;DHT22;18610;49.916;8.284;2022-08-03T04:56:15;17.60;99.90
32097;DHT22;18610;49.916;8.284;2022-08-03T04:58:42;17.70;99.90
32097;DHT22;18610;49.916;8.284;2022-08-03T05:01:09;17.80;99.90
32097;DHT22;18610;49.916;8.284;2022-08-03T05:03:37;17.90;99.90
32097;DHT22;18610;49.916;8.284;2022-08-03T05:06:04;17.90;99.90
32097;DHT22;18610;49.916;8.284;2022-08-03T05:08:31;18.00;99.90
32097;DHT22;18610;49.916;8.284;2022-08-03T05:10:58;18.10;99.90
32097;DHT22;18610;49.916;8.284;2022-08-03T05:13:25;18.20;99.90
32097;DHT22;18610;49.916;8.284;2022-08-03T05:15:52;18.30;99.90
32097;DHT22;18610;49.916;8.284;2022-08-03T05:18:19;18.40;99.90
32097;DHT22;18610;49.916;8.284;2022-08-03T05:20:47;18.40;99.90
32097;DHT22;18610;49.916;8.284;2022-08-03T05:23:14;18.60;99.90
32097;DHT22;18610;49.916;8.284;2022-08-03T05:25:40;18.70;99.90
32097;DHT22;18610;49.916;8.284;2022-08-03T05:28:07;18.80;99.90
32097;DHT22;18610;49.916;8.284;2022-08-03T05:30:35;18.90;99.90
32097;DHT22;18610;49.916;8.284;2022-08-03T05:33:03;19.10;99.90
32097;DHT22;18610;49.916;8.284;2022-08-03T05:35:30;19.20;99.90
32097;DHT22;18610;49.916;8.284;2022-08-03T05:37:58;19.30;99.90
32097;DHT22;18610;49.916;8.284;2022-08-03T05:40:25;19.40;99.90
32097;DHT22;18610;49.916;8.284;2022-08-03T05:42:52;19.60;99.90
32097;DHT22;18610;49.916;8.284;2022-08-03T05:45:19;19.80;99.90
32097;DHT22;18610;49.916;8.284;2022-08-03T05:47:46;19.80;99.90
32097;DHT22;18610;49.916;8.284;2022-08-03T05:50:16;20.00;99.90
32097;DHT22;18610;49.916;8.284;2022-08-03T05:52:43;20.10;99.90
32097;DHT22;18610;49.916;8.284;2022-08-03T05:55:12;20.20;99.30
32097;DHT22;18610;49.916;8.284;2022-08-03T05:57:40;20.40;98.90
32097;DHT22;18610;49.916;8.284;2022-08-03T06:00:08;20.60;98.40
32097;DHT22;18610;49.916;8.284;2022-08-03T06:02:36;20.80;97.90
32097;DHT22;18610;49.916;8.284;2022-08-03T06:05:03;20.90;96.20
32097;DHT22;18610;49.916;8.284;2022-08-03T06:07:30;21.00;96.20
32097;DHT22;18610;49.916;8.284;2022-08-03T06:09:57;21.20;95.90
32097;DHT22;18610;49.916;8.284;2022-08-03T06:12:27;21.30;95.70
32097;DHT22;18610;49.916;8.284;2022-08-03T06:14:55;21.50;95.40
32097;DHT22;18610;49.916;8.284;2022-08-03T06:17:22;21.60;95.00
32097;DHT22;18610;49.916;8.284;2022-08-03T06:19:51;21.80;95.00
32097;DHT22;18610;49.916;8.284;2022-08-03T06:22:18;21.90;94.70
32097;DHT22;18610;49.916;8.284;2022-08-03T06:24:45;22.10;94.50
32097;DHT22;18610;49.916;8.284;2022-08-03T06:27:12;22.20;94.30
32097;DHT22;18610;49.916;8.284;2022-08-03T06:29:40;22.30;94.00
32097;DHT22;18610;49.916;8.284;2022-08-03T06:32:07;22.40;93.70
32097;DHT22;18610;49.916;8.284;2022-08-03T06:34:34;22.60;93.60
32097;DHT22;18610;49.916;8.284;2022-08-03T06:37:01;22.70;93.40
32097;DHT22;18610;49.916;8.284;2022-08-03T06:39:28;22.90;93.30
32097;DHT22;18610;49.916;8.284;2022-08-03T06:41:54;23.00;93.10
32097;DHT22;18610;49.916;8.284;2022-08-03T06:44:22;23.20;92.60
32097;DHT22;18610;49.916;8.284;2022-08-03T06:46:50;23.30;92.30
32097;DHT22;18610;49.916;8.284;2022-08-03T06:49:17;23.40;92.10
32097;DHT22;18610;49.916;8.284;2022-08-03T06:51:44;23.60;91.70
32097;DHT22;18610;49.916;8.284;2022-08-03T06:54:11;23.80;91.60
32097;DHT22;18610;49.916;8.284;2022-08-03T06:56:38;23.90;91.30
32097;DHT22;18610;49.916;8.284;2022-08-03T06:59:04;24.00;91.00
32097;DHT22;18610;49.916;8.284;2022-08-03T07:01:31;24.20;90.90
32097;DHT22;18610;49.916;8.284;2022-08-03T07:04:00;24.30;90.50
32097;DHT22;18610;49.916;8.284;2022-08-03T07:06:26;24.40;90.30
32097;DHT22;18610;49.916;8.284;2022-08-03T07:08:53;24.50;90.10
32097;DHT22;18610;49.916;8.284;2022-08-03T07:11:21;24.60;90.00
32097;DHT22;18610;49.916;8.284;2022-08-03T07:13:47;24.80;90.00
32097;DHT22;18610;49.916;8.284;2022-08-03T07:16:14;24.90;89.40
32097;DHT22;18610;49.916;8.284;2022-08-03T07:18:41;25.00;88.90
32097;DHT22;18610;49.916;8.284;2022-08-03T07:21:09;25.10;88.00
32097;DHT22;18610;49.916;8.284;2022-08-03T07:23:37;25.20;87.20
32097;DHT22;18610;49.916;8.284;2022-08-03T07:26:04;25.30;86.50
32097;DHT22;18610;49.916;8.284;2022-08-03T07:28:30;25.40;86.30
32097;DHT22;18610;49.916;8.284;2022-08-03T07:30:57;25.50;86.70
32097;DHT22;18610;49.916;8.284;2022-08-03T07:33:24;25.60;86.90
32097;DHT22;18610;49.916;8.284;2022-08-03T07:35:51;25.80;85.90
32097;DHT22;18610;49.916;8.284;2022-08-03T07:38:19;26.00;85.40
32097;DHT22;18610;49.916;8.284;2022-08-03T07:40:46;26.10;83.30
32097;DHT22;18610;49.916;8.284;2022-08-03T07:43:13;26.20;83.80
32097;DHT22;18610;49.916;8.284;2022-08-03T07:45:39;26.30;83.10
32097;DHT22;18610;49.916;8.284;2022-08-03T07:48:06;26.50;82.50
32097;DHT22;18610;49.916;8.284;2022-08-03T07:50:33;26.60;81.00
32097;DHT22;18610;49.916;8.284;2022-08-03T07:53:03;26.70;80.10
32097;DHT22;18610;49.916;8.284;2022-08-03T07:55:32;26.90;79.20
32097;DHT22;18610;49.916;8.284;2022-08-03T07:58:01;27.00;79.00
32097;DHT22;18610;49.916;8.284;2022-08-03T08:00:28;27.20;77.60
32097;DHT22;18610;49.916;8.284;2022-08-03T08:02:55;27.30;76.90
32097;DHT22;18610;49.916;8.284;2022-08-03T08:05:22;27.40;76.70
32097;DHT22;18610;49.916;8.284;2022-08-03T08:07:48;27.50;75.80
32097;DHT22;18610;49.916;8.284;2022-08-03T08:10:15;27.70;74.40
32097;DHT22;18610;49.916;8.284;2022-08-03T08:12:43;27.80;73.70
32097;DHT22;18610;49.916;8.284;2022-08-03T08:15:10;28.00;73.20
32097;DHT22;18610;49.916;8.284;2022-08-03T08:17:41;28.20;71.50
32097;DHT22;18610;49.916;8.284;2022-08-03T08:20:10;28.20;69.50
32097;DHT22;18610;49.916;8.284;2022-08-03T08:22:36;28.30;69.10
32097;DHT22;18610;49.916;8.284;2022-08-03T08:25:04;28.50;68.20
32097;DHT22;18610;49.916;8.284;2022-08-03T08:27:31;28.70;67.30
32097;DHT22;18610;49.916;8.284;2022-08-03T08:29:59;28.80;65.70
32097;DHT22;18610;49.916;8.284;2022-08-03T08:32:29;29.00;65.60
32097;DHT22;18610;49.916;8.284;2022-08-03T08:34:56;29.10;63.00
32097;DHT22;18610;49.916;8.284;2022-08-03T08:37:23;29.20;62.40
32097;DHT22;18610;49.916;8.284;2022-08-03T08:39:49;29.30;60.10
32097;DHT22;18610;49.916;8.284;2022-08-03T08:42:16;29.30;59.40
32097;DHT22;18610;49.916;8.284;2022-08-03T08:44:43;29.50;59.70
32097;DHT22;18610;49.916;8.284;2022-08-03T08:47:11;29.60;59.30
32097;DHT22;18610;49.916;8.284;2022-08-03T08:49:40;29.70;58.00
32097;DHT22;18610;49.916;8.284;2022-08-03T08:52:08;29.80;57.50
32097;DHT22;18610;49.916;8.284;2022-08-03T08:54:35;29.80;55.70
32097;DHT22;18610;49.916;8.284;2022-08-03T08:57:06;29.70;55.10
32097;DHT22;18610;49.916;8.284;2022-08-03T08:59:34;29.80;55.20
32097;DHT22;18610;49.916;8.284;2022-08-03T09:02:01;29.90;54.70
32097;DHT22;18610;49.916;8.284;2022-08-03T09:04:30;29.90;54.10
32097;DHT22;18610;49.916;8.284;2022-08-03T09:06:57;30.00;53.40
32097;DHT22;18610;49.916;8.284;2022-08-03T09:09:23;30.20;53.80
32097;DHT22;18610;49.916;8.284;2022-08-03T09:11:50;30.40;54.90
32097;DHT22;18610;49.916;8.284;2022-08-03T09:14:17;30.60;54.00
32097;DHT22;18610;49.916;8.284;2022-08-03T09:17:02;30.90;53.40
32097;DHT22;18610;49.916;8.284;2022-08-03T09:19:32;31.10;52.50
32097;DHT22;18610;49.916;8.284;2022-08-03T09:22:10;31.30;49.40
32097;DHT22;18610;49.916;8.284;2022-08-03T09:24:38;31.30;49.10
32097;DHT22;18610;49.916;8.284;2022-08-03T09:27:20;31.40;47.50
32097;DHT22;18610;49.916;8.284;2022-08-03T09:29:47;31.30;48.80
32097;DHT22;18610;49.916;8.284;2022-08-03T09:32:15;31.30;48.50
32097;DHT22;18610;49.916;8.284;2022-08-03T09:34:46;31.20;49.30
32097;DHT22;18610;49.916;8.284;2022-08-03T09:37:14;31.40;48.90
32097;DHT22;18610;49.916;8.284;2022-08-03T09:39:41;31.70;48.70
32097;DHT22;18610;49.916;8.284;2022-08-03T09:42:11;32.00;48.40
32097;DHT22;18610;49.916;8.284;2022-08-03T09:44:40;32.20;47.90
32097;DHT22;18610;49.916;8.284;2022-08-03T09:47:08;32.40;47.20
32097;DHT22;18610;49.916;8.284;2022-08-03T09:49:35;32.50;46.50
32097;DHT22;18610;49.916;8.284;2022-08-03T09:52:13;32.40;46.50
32097;DHT22;18610;49.916;8.284;2022-08-03T09:54:41;32.60;45.70
32097;DHT22;18610;49.916;8.284;2022-08-03T09:57:08;32.60;45.10
32097;DHT22;18610;49.916;8.284;2022-08-03T09:59:45;32.80;45.20
32097;DHT22;18610;49.916;8.284;2022-08-03T10:02:20;33.00;45.20
32097;DHT22;18610;49.916;8.284;2022-08-03T10:04:48;33.20;44.70
32097;DHT22;18610;49.916;8.284;2022-08-03T10:07:19;33.30;44.30
32097;DHT22;18610;49.916;8.284;2022-08-03T10:09:57;33.40;44.00
32097;DHT22;18610;49.916;8.284;2022-08-03T10:12:24;33.50;43.30
32097;DHT22;18610;49.916;8.284;2022-08-03T10:14:51;33.40;43.50
32097;DHT22;18610;49.916;8.284;2022-08-03T10:17:19;33.40;44.10
32097;DHT22;18610;49.916;8.284;2022-08-03T10:19:47;33.50;43.40
32097;DHT22;18610;49.916;8.284;2022-08-03T10:22:19;33.70;42.60
32097;DHT22;18610;49.916;8.284;2022-08-03T10:24:51;33.80;42.30
32097;DHT22;18610;49.916;8.284;2022-08-03T10:27:22;33.90;42.80
32097;DHT22;18610;49.916;8.284;2022-08-03T10:29:51;34.10;42.20
32097;DHT22;18610;49.916;8.284;2022-08-03T10:32:23;34.10;41.40
32097;DHT22;18610;49.916;8.284;2022-08-03T10:34:53;34.20;41.10
32097;DHT22;18610;49.916;8.284;2022-08-03T10:37:29;34.30;41.40
32097;DHT22;18610;49.916;8.284;2022-08-03T10:39:59;34.50;41.40
32097;DHT22;18610;49.916;8.284;2022-08-03T10:42:27;34.20;40.90
32097;DHT22;18610;49.916;8.284;2022-08-03T10:45:03;34.00;41.40
32097;DHT22;18610;49.916;8.284;2022-08-03T10:47:31;34.00;41.70
32097;DHT22;18610;49.916;8.284;2022-08-03T10:49:59;34.00;41.80
32097;DHT22;18610;49.916;8.284;2022-08-03T10:52:27;34.00;40.70
32097;DHT22;18610;49.916;8.284;2022-08-03T10:54:54;34.10;41.10
32097;DHT22;18610;49.916;8.284;2022-08-03T10:57:48;34.10;40.80
32097;DHT22;18610;49.916;8.284;2022-08-03T11:00:18;34.10;40.30
32097;DHT22;18610;49.916;8.284;2022-08-03T11:03:04;33.80;40.70
32097;DHT22;18610;49.916;8.284;2022-08-03T11:05:33;33.90;41.20
32097;DHT22;18610;49.916;8.284;2022-08-03T11:08:32;34.10;41.30
32097;DHT22;18610;49.916;8.284;2022-08-03T11:11:02;34.50;41.10
32097;DHT22;18610;49.916;8.284;2022-08-03T11:13:56;34.70;40.70
32097;DHT22;18610;49.916;8.284;2022-08-03T11:16:25;35.00;40.90
32097;DHT22;18610;49.916;8.284;2022-08-03T11:18:57;35.00;39.70
32097;DHT22;18610;49.916;8.284;2022-08-03T11:24:07;34.90;40.90
32097;DHT22;18610;49.916;8.284;2022-08-03T11:26:34;35.10;40.00
32097;DHT22;18610;49.916;8.284;2022-08-03T11:29:27;35.10;39.20
32097;DHT22;18610;49.916;8.284;2022-08-03T11:31:54;35.20;39.70
32097;DHT22;18610;49.916;8.284;2022-08-03T11:34:21;35.20;39.30
32097;DHT22;18610;49.916;8.284;2022-08-03T11:37:17;35.30;39.30
32097;DHT22;18610;49.916;8.284;2022-08-03T11:39:52;35.40;39.10
32097;DHT22;18610;49.916;8.284;2022-08-03T11:42:39;35.40;38.40
32097;DHT22;18610;49.916;8.284;2022-08-03T11:45:08;35.40;39.10
32097;DHT22;18610;49.916;8.284;2022-08-03T11:47:37;35.40;38.10
32097;DHT22;18610;49.916;8.284;2022-08-03T11:50:05;35.30;38.30
32097;DHT22;18610;49.916;8.284;2022-08-03T11:52:37;35.20;39.20
32097;DHT22;18610;49.916;8.284;2022-08-03T11:55:10;35.30;39.10
32097;DHT22;18610;49.916;8.284;2022-08-03T11:57:37;35.50;39.00
32097;DHT22;18610;49.916;8.284;2022-08-03T12:00:19;35.60;38.20
32097;DHT22;18610;49.916;8.284;2022-08-03T12:02:56;35.60;38.50
32097;DHT22;18610;49.916;8.284;2022-08-03T12:05:46;35.60;38.80
32097;DHT22;18610;49.916;8.284;2022-08-03T12:08:15;35.50;38.00
32097;DHT22;18610;49.916;8.284;2022-08-03T12:10:48;35.40;38.90
32097;DHT22;18610;49.916;8.284;2022-08-03T12:13:16;35.60;38.30
32097;DHT22;18610;49.916;8.284;2022-08-03T12:15:47;35.80;38.20
32097;DHT22;18610;49.916;8.284;2022-08-03T12:18:17;35.70;37.30
32097;DHT22;18610;49.916;8.284;2022-08-03T12:20:45;35.60;37.90
32097;DHT22;18610;49.916;8.284;2022-08-03T12:23:12;35.80;38.20
32097;DHT22;18610;49.916;8.284;2022-08-03T12:25:41;36.10;37.90
32097;DHT22;18610;49.916;8.284;2022-08-03T12:28:12;36.20;37.70
32097;DHT22;18610;49.916;8.284;2022-08-03T12:30:42;36.20;37.00
32097;DHT22;18610;49.916;8.284;2022-08-03T12:33:22;36.20;37.20
32097;DHT22;18610;49.916;8.284;2022-08-03T12:36:01;36.20;36.90
32097;DHT22;18610;49.916;8.284;2022-08-03T12:38:30;36.20;37.10
32097;DHT22;18610;49.916;8.284;2022-08-03T12:41:01;36.20;36.60
32097;DHT22;18610;49.916;8.284;2022-08-03T12:43:30;36.30;37.00
32097;DHT22;18610;49.916;8.284;2022-08-03T12:46:14;36.20;36.20
32097;DHT22;18610;49.916;8.284;2022-08-03T12:49:04;36.10;37.40
32097;DHT22;18610;49.916;8.284;2022-08-03T12:51:33;36.40;36.80
32097;DHT22;18610;49.916;8.284;2022-08-03T12:54:01;36.50;37.00
32097;DHT22;18610;49.916;8.284;2022-08-03T12:56:28;36.60;35.80
32097;DHT22;18610;49.916;8.284;2022-08-03T12:58:56;36.70;36.80
32097;DHT22;18610;49.916;8.284;2022-08-03T13:01:23;36.80;36.70
32097;DHT22;18610;49.916;8.284;2022-08-03T13:03:52;36.90;35.60
32097;DHT22;18610;49.916;8.284;2022-08-03T13:06:21;37.00;35.70
32097;DHT22;18610;49.916;8.284;2022-08-03T13:08:49;37.10;36.20
32097;DHT22;18610;49.916;8.284;2022-08-03T13:11:18;37.30;35.80
32097;DHT22;18610;49.916;8.284;2022-08-03T13:13:45;37.50;35.50
32097;DHT22;18610;49.916;8.284;2022-08-03T13:16:13;37.50;35.00
32097;DHT22;18610;49.916;8.284;2022-08-03T13:18:40;37.30;34.60
32097;DHT22;18610;49.916;8.284;2022-08-03T13:21:06;37.10;35.60
32097;DHT22;18610;49.916;8.284;2022-08-03T13:23:33;37.20;35.60
32097;DHT22;18610;49.916;8.284;2022-08-03T13:26:00;37.30;35.40
32097;DHT22;18610;49.916;8.284;2022-08-03T13:28:27;37.40;35.20
32097;DHT22;18610;49.916;8.284;2022-08-03T13:30:54;37.70;34.80
32097;DHT22;18610;49.916;8.284;2022-08-03T13:33:22;37.90;34.50
32097;DHT22;18610;49.916;8.284;2022-08-03T13:35:49;38.00;34.50
32097;DHT22;18610;49.916;8.284;2022-08-03T13:38:15;38.10;34.30
32097;DHT22;18610;49.916;8.284;2022-08-03T13:40:42;38.20;33.80
32097;DHT22;18610;49.916;8.284;2022-08-03T13:43:09;38.10;34.00
32097;DHT22;18610;49.916;8.284;2022-08-03T13:45:37;38.20;33.80
32097;DHT22;18610;49.916;8.284;2022-08-03T13:48:03;38.20;34.00
32097;DHT22;18610;49.916;8.284;2022-08-03T13:50:32;38.10;33.50
32097;DHT22;18610;49.916;8.284;2022-08-03T13:52:58;38.00;33.30
32097;DHT22;18610;49.916;8.284;2022-08-03T13:55:25;37.90;33.20
32097;DHT22;18610;49.916;8.284;2022-08-03T13:57:52;37.90;33.60
32097;DHT22;18610;49.916;8.284;2022-08-03T14:00:19;37.70;33.60
32097;DHT22;18610;49.916;8.284;2022-08-03T14:02:48;37.80;33.70
32097;DHT22;18610;49.916;8.284;2022-08-03T14:05:15;37.90;33.80
32097;DHT22;18610;49.916;8.284;2022-08-03T14:07:43;38.10;33.60
32097;DHT22;18610;49.916;8.284;2022-08-03T14:10:10;38.00;33.20
32097;DHT22;18610;49.916;8.284;2022-08-03T14:12:37;38.00;33.20
32097;DHT22;18610;49.916;8.284;2022-08-03T14:15:04;37.90;33.60
32097;DHT22;18610;49.916;8.284;2022-08-03T14:17:34;37.50;33.20
32097;DHT22;18610;49.916;8.284;2022-08-03T14:20:01;37.40;34.00
32097;DHT22;18610;49.916;8.284;2022-08-03T14:22:29;37.40;33.70
32097;DHT22;18610;49.916;8.284;2022-08-03T14:24:57;37.30;33.80
32097;DHT22;18610;49.916;8.284;2022-08-03T14:27:24;37.30;33.40
32097;DHT22;18610;49.916;8.284;2022-08-03T14:29:51;37.30;33.10
32097;DHT22;18610;49.916;8.284;2022-08-03T14:32:18;37.40;33.80
32097;DHT22;18610;49.916;8.284;2022-08-03T14:34:45;37.50;33.40
32097;DHT22;18610;49.916;8.284;2022-08-03T14:37:12;37.60;33.60
32097;DHT22;18610;49.916;8.284;2022-08-03T14:39:39;37.70;34.00
32097;DHT22;18610;49.916;8.284;2022-08-03T14:42:07;37.60;33.40
32097;DHT22;18610;49.916;8.284;2022-08-03T14:44:34;37.60;33.60
32097;DHT22;18610;49.916;8.284;2022-08-03T14:47:00;37.60;34.00
32097;DHT22;18610;49.916;8.284;2022-08-03T14:49:27;37.50;33.80
32097;DHT22;18610;49.916;8.284;2022-08-03T14:51:54;37.40;34.20
32097;DHT22;18610;49.916;8.284;2022-08-03T14:54:21;37.30;33.90
32097;DHT22;18610;49.916;8.284;2022-08-03T14:56:48;37.40;34.20
32097;DHT22;18610;49.916;8.284;2022-08-03T14:59:16;37.40;34.10
32097;DHT22;18610;49.916;8.284;2022-08-03T15:01:42;37.40;33.80
32097;DHT22;18610;49.916;8.284;2022-08-03T15:04:09;37.50;34.10
32097;DHT22;18610;49.916;8.284;2022-08-03T15:06:36;37.50;33.90
32097;DHT22;18610;49.916;8.284;2022-08-03T15:09:03;37.60;34.10
32097;DHT22;18610;49.916;8.284;2022-08-03T15:11:29;37.70;33.90
32097;DHT22;18610;49.916;8.284;2022-08-03T15:13:56;37.70;33.60
32097;DHT22;18610;49.916;8.284;2022-08-03T15:16:24;37.70;33.70
32097;DHT22;18610;49.916;8.284;2022-08-03T15:18:51;37.80;33.70
32097;DHT22;18610;49.916;8.284;2022-08-03T15:21:18;37.90;33.30
32097;DHT22;18610;49.916;8.284;2022-08-03T15:23:45;37.80;33.40
32097;DHT22;18610;49.916;8.284;2022-08-03T15:26:12;37.80;33.20
32097;DHT22;18610;49.916;8.284;2022-08-03T15:28:38;37.70;33.50
32097;DHT22;18610;49.916;8.284;2022-08-03T15:31:05;37.70;33.40
32097;DHT22;18610;49.916;8.284;2022-08-03T15:33:33;37.60;33.40
32097;DHT22;18610;49.916;8.284;2022-08-03T15:36:00;37.30;33.40
32097;DHT22;18610;49.916;8.284;2022-08-03T15:38:27;37.30;33.70
32097;DHT22;18610;49.916;8.284;2022-08-03T15:40:54;37.20;33.90
32097;DHT22;18610;49.916;8.284;2022-08-03T15:43:21;37.10;34.80
32097;DHT22;18610;49.916;8.284;2022-08-03T15:45:48;37.00;34.90